sensor_id;sensor_type;location;lat;lon;timestamp;P1;durP1;ratioP1;P2;durP2;ratioP2
31978;SDS011;18502;43.574;1.276;2023-05-10T00:00:38;27.92;;;5.30;;
31978;SDS011;18502;43.574;1.276;2023-05-10T00:03:04;29.67;;;5.53;;
31978;SDS011;18502;43.574;1.276;2023-05-10T00:05:30;21.40;;;4.63;;
31978;SDS011;18502;43.574;1.276;2023-05-10T00:07:56;27.00;;;5.13;;
31978;SDS011;18502;43.574;1.276;2023-05-10T00:10:22;23.40;;;4.85;;
31978;SDS011;18502;43.574;1.276;2023-05-10T00:12:47;27.48;;;5.72;;
31978;SDS011;18502;43.574;1.276;2023-05-10T00:15:13;21.98;;;4.88;;
31978;SDS011;18502;43.574;1.276;2023-05-10T00:17:39;25.73;;;4.63;;
31978;SDS011;18502;43.574;1.276;2023-05-10T00:20:05;35.67;;;6.63;;
31978;SDS011;18502;43.574;1.276;2023-05-10T00:22:32;29.45;;;5.88;;
31978;SDS011;18502;43.574;1.276;2023-05-10T00:24:58;26.90;;;5.00;;
31978;SDS011;18502;43.574;1.276;2023-05-10T00:27:23;32.28;;;8.55;;
31978;SDS011;18502;43.574;1.276;2023-05-10T00:29:49;22.83;;;5.75;;
31978;SDS011;18502;43.574;1.276;2023-05-10T00:32:15;38.47;;;4.95;;
31978;SDS011;18502;43.574;1.276;2023-05-10T00:34:41;19.92;;;5.15;;
31978;SDS011;18502;43.574;1.276;2023-05-10T00:37:07;29.13;;;5.10;;
31978;SDS011;18502;43.574;1.276;2023-05-10T00:39:33;28.77;;;5.57;;
31978;SDS011;18502;43.574;1.276;2023-05-10T00:41:59;25.30;;;5.43;;
31978;SDS011;18502;43.574;1.276;2023-05-10T00:44:25;20.55;;;4.80;;
31978;SDS011;18502;43.574;1.276;2023-05-10T00:46:50;22.92;;;4.78;;
31978;SDS011;18502;43.574;1.276;2023-05-10T00:49:17;29.35;;;6.00;;
31978;SDS011;18502;43.574;1.276;2023-05-10T00:51:43;23.25;;;4.70;;
31978;SDS011;18502;43.574;1.276;2023-05-10T00:54:11;30.13;;;4.75;;
31978;SDS011;18502;43.574;1.276;2023-05-10T00:56:38;19.00;;;4.38;;
31978;SDS011;18502;43.574;1.276;2023-05-10T00:59:05;34.97;;;5.72;;
31978;SDS011;18502;43.574;1.276;2023-05-10T01:01:31;21.10;;;3.80;;
31978;SDS011;18502;43.574;1.276;2023-05-10T01:03:57;29.92;;;4.05;;
31978;SDS011;18502;43.574;1.276;2023-05-10T01:06:23;15.77;;;4.82;;
31978;SDS011;18502;43.574;1.276;2023-05-10T01:08:49;12.27;;;3.78;;
31978;SDS011;18502;43.574;1.276;2023-05-10T01:11:15;17.98;;;4.10;;
31978;SDS011;18502;43.574;1.276;2023-05-10T01:13:42;18.50;;;3.63;;
31978;SDS011;18502;43.574;1.276;2023-05-10T01:16:12;18.80;;;3.78;;
31978;SDS011;18502;43.574;1.276;2023-05-10T01:18:39;21.75;;;3.92;;
31978;SDS011;18502;43.574;1.276;2023-05-10T01:32:22;15.68;;;4.18;;
31978;SDS011;18502;43.574;1.276;2023-05-10T01:37:31;26.15;;;4.22;;
31978;SDS011;18502;43.574;1.276;2023-05-10T01:40:30;20.23;;;4.10;;
31978;SDS011;18502;43.574;1.276;2023-05-10T01:43:03;24.25;;;3.70;;
31978;SDS011;18502;43.574;1.276;2023-05-10T01:48:20;15.60;;;3.47;;
31978;SDS011;18502;43.574;1.276;2023-05-10T01:50:48;20.35;;;4.78;;
31978;SDS011;18502;43.574;1.276;2023-05-10T01:53:16;20.10;;;3.75;;
31978;SDS011;18502;43.574;1.276;2023-05-10T01:55:49;20.80;;;3.83;;
31978;SDS011;18502;43.574;1.276;2023-05-10T01:58:20;25.40;;;3.22;;
31978;SDS011;18502;43.574;1.276;2023-05-10T02:00:50;22.83;;;3.78;;
31978;SDS011;18502;43.574;1.276;2023-05-10T02:03:17;18.60;;;3.28;;
31978;SDS011;18502;43.574;1.276;2023-05-10T02:05:46;28.80;;;4.20;;
31978;SDS011;18502;43.574;1.276;2023-05-10T02:08:14;25.77;;;3.65;;
31978;SDS011;18502;43.574;1.276;2023-05-10T02:10:42;22.98;;;4.18;;
31978;SDS011;18502;43.574;1.276;2023-05-10T02:13:10;20.98;;;3.75;;
31978;SDS011;18502;43.574;1.276;2023-05-10T02:15:37;27.45;;;5.05;;
31978;SDS011;18502;43.574;1.276;2023-05-10T02:18:05;24.90;;;4.00;;
31978;SDS011;18502;43.574;1.276;2023-05-10T02:20:32;19.20;;;3.88;;
31978;SDS011;18502;43.574;1.276;2023-05-10T02:22:59;23.45;;;4.53;;
31978;SDS011;18502;43.574;1.276;2023-05-10T02:25:28;26.10;;;5.15;;
31978;SDS011;18502;43.574;1.276;2023-05-10T02:27:56;20.75;;;4.95;;
31978;SDS011;18502;43.574;1.276;2023-05-10T02:30:23;25.40;;;4.90;;
31978;SDS011;18502;43.574;1.276;2023-05-10T02:32:50;25.35;;;6.13;;
31978;SDS011;18502;43.574;1.276;2023-05-10T02:35:16;20.70;;;4.63;;
31978;SDS011;18502;43.574;1.276;2023-05-10T02:37:43;18.60;;;5.20;;
31978;SDS011;18502;43.574;1.276;2023-05-10T02:40:10;22.92;;;5.15;;
31978;SDS011;18502;43.574;1.276;2023-05-10T02:42:38;17.13;;;3.90;;
31978;SDS011;18502;43.574;1.276;2023-05-10T02:45:08;24.20;;;4.23;;
31978;SDS011;18502;43.574;1.276;2023-05-10T02:47:38;19.65;;;4.00;;
31978;SDS011;18502;43.574;1.276;2023-05-10T02:50:04;27.65;;;4.97;;
31978;SDS011;18502;43.574;1.276;2023-05-10T02:52:35;19.70;;;4.20;;
31978;SDS011;18502;43.574;1.276;2023-05-10T02:55:09;18.45;;;3.58;;
31978;SDS011;18502;43.574;1.276;2023-05-10T02:57:40;23.13;;;4.50;;
31978;SDS011;18502;43.574;1.276;2023-05-10T03:00:10;23.40;;;5.85;;
31978;SDS011;18502;43.574;1.276;2023-05-10T03:02:36;23.02;;;4.90;;
31978;SDS011;18502;43.574;1.276;2023-05-10T03:05:02;22.50;;;4.93;;
31978;SDS011;18502;43.574;1.276;2023-05-10T03:07:28;35.47;;;6.22;;
31978;SDS011;18502;43.574;1.276;2023-05-10T03:09:54;30.63;;;5.22;;
31978;SDS011;18502;43.574;1.276;2023-05-10T03:12:27;18.17;;;3.75;;
31978;SDS011;18502;43.574;1.276;2023-05-10T03:26:23;17.17;;;3.35;;
31978;SDS011;18502;43.574;1.276;2023-05-10T03:28:51;18.20;;;2.97;;
31978;SDS011;18502;43.574;1.276;2023-05-10T03:31:18;13.77;;;3.33;;
31978;SDS011;18502;43.574;1.276;2023-05-10T03:33:50;15.95;;;3.03;;
31978;SDS011;18502;43.574;1.276;2023-05-10T03:36:17;17.40;;;3.45;;
31978;SDS011;18502;43.574;1.276;2023-05-10T03:38:43;18.42;;;2.80;;
31978;SDS011;18502;43.574;1.276;2023-05-10T03:41:09;15.07;;;2.60;;
31978;SDS011;18502;43.574;1.276;2023-05-10T03:43:34;15.23;;;3.05;;
31978;SDS011;18502;43.574;1.276;2023-05-10T03:46:03;20.48;;;3.20;;
31978;SDS011;18502;43.574;1.276;2023-05-10T03:48:29;16.77;;;2.87;;
31978;SDS011;18502;43.574;1.276;2023-05-10T03:50:56;26.83;;;4.30;;
31978;SDS011;18502;43.574;1.276;2023-05-10T03:53:22;15.93;;;2.63;;
31978;SDS011;18502;43.574;1.276;2023-05-10T03:55:48;13.20;;;2.92;;
31978;SDS011;18502;43.574;1.276;2023-05-10T03:58:14;14.13;;;2.67;;
31978;SDS011;18502;43.574;1.276;2023-05-10T04:00:40;17.77;;;3.53;;
31978;SDS011;18502;43.574;1.276;2023-05-10T04:03:09;17.92;;;2.88;;
31978;SDS011;18502;43.574;1.276;2023-05-10T04:05:35;18.05;;;3.65;;
31978;SDS011;18502;43.574;1.276;2023-05-10T04:08:01;15.52;;;2.92;;
31978;SDS011;18502;43.574;1.276;2023-05-10T04:10:27;15.25;;;3.28;;
31978;SDS011;18502;43.574;1.276;2023-05-10T04:12:53;18.98;;;2.67;;
31978;SDS011;18502;43.574;1.276;2023-05-10T04:15:19;15.02;;;3.35;;
31978;SDS011;18502;43.574;1.276;2023-05-10T04:17:44;15.10;;;2.72;;
31978;SDS011;18502;43.574;1.276;2023-05-10T04:20:10;16.23;;;3.38;;
31978;SDS011;18502;43.574;1.276;2023-05-10T04:22:37;21.95;;;2.80;;
31978;SDS011;18502;43.574;1.276;2023-05-10T04:25:02;16.98;;;2.97;;
31978;SDS011;18502;43.574;1.276;2023-05-10T04:27:29;18.52;;;3.05;;
31978;SDS011;18502;43.574;1.276;2023-05-10T04:29:55;28.48;;;3.60;;
31978;SDS011;18502;43.574;1.276;2023-05-10T04:32:20;18.83;;;3.33;;
31978;SDS011;18502;43.574;1.276;2023-05-10T04:34:46;15.82;;;3.72;;
31978;SDS011;18502;43.574;1.276;2023-05-10T04:37:12;17.55;;;3.00;;
31978;SDS011;18502;43.574;1.276;2023-05-10T04:39:38;17.27;;;4.50;;
31978;SDS011;18502;43.574;1.276;2023-05-10T04:42:04;20.40;;;3.65;;
31978;SDS011;18502;43.574;1.276;2023-05-10T04:44:30;21.70;;;3.78;;
31978;SDS011;18502;43.574;1.276;2023-05-10T04:46:59;24.13;;;4.07;;
31978;SDS011;18502;43.574;1.276;2023-05-10T04:49:25;22.13;;;4.50;;
31978;SDS011;18502;43.574;1.276;2023-05-10T04:51:50;18.38;;;3.28;;
31978;SDS011;18502;43.574;1.276;2023-05-10T04:54:16;20.55;;;4.45;;
31978;SDS011;18502;43.574;1.276;2023-05-10T04:56:42;25.90;;;4.15;;
31978;SDS011;18502;43.574;1.276;2023-05-10T04:59:07;26.17;;;3.65;;
31978;SDS011;18502;43.574;1.276;2023-05-10T05:01:33;28.52;;;5.63;;
31978;SDS011;18502;43.574;1.276;2023-05-10T05:03:59;26.70;;;5.25;;
31978;SDS011;18502;43.574;1.276;2023-05-10T05:06:25;20.23;;;3.63;;
31978;SDS011;18502;43.574;1.276;2023-05-10T05:08:52;19.92;;;3.95;;
31978;SDS011;18502;43.574;1.276;2023-05-10T05:11:17;20.95;;;4.43;;
31978;SDS011;18502;43.574;1.276;2023-05-10T05:13:43;20.48;;;4.22;;
31978;SDS011;18502;43.574;1.276;2023-05-10T05:16:09;16.67;;;3.53;;
31978;SDS011;18502;43.574;1.276;2023-05-10T05:18:35;27.83;;;6.00;;
31978;SDS011;18502;43.574;1.276;2023-05-10T05:21:01;24.02;;;4.20;;
31978;SDS011;18502;43.574;1.276;2023-05-10T05:23:27;28.90;;;4.57;;
31978;SDS011;18502;43.574;1.276;2023-05-10T05:25:53;13.15;;;3.63;;
31978;SDS011;18502;43.574;1.276;2023-05-10T05:28:19;25.30;;;4.35;;
31978;SDS011;18502;43.574;1.276;2023-05-10T05:30:45;23.83;;;3.55;;
31978;SDS011;18502;43.574;1.276;2023-05-10T05:33:11;20.70;;;3.88;;
31978;SDS011;18502;43.574;1.276;2023-05-10T05:35:39;17.65;;;3.33;;
31978;SDS011;18502;43.574;1.276;2023-05-10T05:38:04;20.27;;;3.70;;
31978;SDS011;18502;43.574;1.276;2023-05-10T05:40:31;19.85;;;3.75;;
31978;SDS011;18502;43.574;1.276;2023-05-10T05:42:56;25.00;;;4.47;;
31978;SDS011;18502;43.574;1.276;2023-05-10T05:45:22;19.30;;;3.53;;
31978;SDS011;18502;43.574;1.276;2023-05-10T05:47:48;24.35;;;4.60;;
31978;SDS011;18502;43.574;1.276;2023-05-10T05:50:13;23.45;;;3.97;;
31978;SDS011;18502;43.574;1.276;2023-05-10T05:52:39;19.02;;;4.10;;
31978;SDS011;18502;43.574;1.276;2023-05-10T05:55:05;18.85;;;4.18;;
31978;SDS011;18502;43.574;1.276;2023-05-10T05:57:31;20.00;;;4.20;;
31978;SDS011;18502;43.574;1.276;2023-05-10T05:59:56;15.00;;;3.22;;
31978;SDS011;18502;43.574;1.276;2023-05-10T06:02:22;21.98;;;3.45;;
31978;SDS011;18502;43.574;1.276;2023-05-10T06:04:48;24.27;;;3.70;;
31978;SDS011;18502;43.574;1.276;2023-05-10T06:07:15;21.60;;;3.53;;
31978;SDS011;18502;43.574;1.276;2023-05-10T06:09:40;17.42;;;4.22;;
31978;SDS011;18502;43.574;1.276;2023-05-10T06:12:06;26.02;;;4.43;;
31978;SDS011;18502;43.574;1.276;2023-05-10T06:14:31;21.17;;;4.47;;
31978;SDS011;18502;43.574;1.276;2023-05-10T06:16:58;23.10;;;4.40;;
31978;SDS011;18502;43.574;1.276;2023-05-10T06:19:25;19.35;;;3.22;;
31978;SDS011;18502;43.574;1.276;2023-05-10T06:21:51;14.93;;;3.03;;
31978;SDS011;18502;43.574;1.276;2023-05-10T06:24:17;28.35;;;4.55;;
31978;SDS011;18502;43.574;1.276;2023-05-10T06:26:42;24.35;;;4.20;;
31978;SDS011;18502;43.574;1.276;2023-05-10T06:29:08;19.67;;;2.97;;
31978;SDS011;18502;43.574;1.276;2023-05-10T06:31:34;19.58;;;3.90;;
31978;SDS011;18502;43.574;1.276;2023-05-10T06:33:59;18.45;;;4.15;;
31978;SDS011;18502;43.574;1.276;2023-05-10T06:36:25;20.40;;;3.28;;
31978;SDS011;18502;43.574;1.276;2023-05-10T06:38:52;16.90;;;3.25;;
31978;SDS011;18502;43.574;1.276;2023-05-10T06:41:18;18.27;;;3.00;;
31978;SDS011;18502;43.574;1.276;2023-05-10T06:43:44;20.85;;;3.05;;
31978;SDS011;18502;43.574;1.276;2023-05-10T06:46:09;14.88;;;2.88;;
31978;SDS011;18502;43.574;1.276;2023-05-10T06:48:35;17.98;;;3.55;;
31978;SDS011;18502;43.574;1.276;2023-05-10T06:51:01;16.13;;;2.95;;
31978;SDS011;18502;43.574;1.276;2023-05-10T06:53:26;19.35;;;2.55;;
31978;SDS011;18502;43.574;1.276;2023-05-10T06:55:52;20.13;;;3.05;;
31978;SDS011;18502;43.574;1.276;2023-05-10T06:58:18;15.52;;;2.78;;
31978;SDS011;18502;43.574;1.276;2023-05-10T07:00:43;20.30;;;3.83;;
31978;SDS011;18502;43.574;1.276;2023-05-10T07:03:10;26.08;;;4.43;;
31978;SDS011;18502;43.574;1.276;2023-05-10T07:05:36;15.68;;;2.90;;
31978;SDS011;18502;43.574;1.276;2023-05-10T07:08:01;25.92;;;4.10;;
31978;SDS011;18502;43.574;1.276;2023-05-10T07:10:27;16.45;;;3.10;;
31978;SDS011;18502;43.574;1.276;2023-05-10T07:12:53;16.65;;;3.22;;
31978;SDS011;18502;43.574;1.276;2023-05-10T07:15:19;17.38;;;3.20;;
31978;SDS011;18502;43.574;1.276;2023-05-10T07:17:44;15.23;;;3.25;;
31978;SDS011;18502;43.574;1.276;2023-05-10T07:20:10;13.40;;;2.75;;
31978;SDS011;18502;43.574;1.276;2023-05-10T07:22:36;18.33;;;3.85;;
31978;SDS011;18502;43.574;1.276;2023-05-10T07:25:02;21.77;;;4.55;;
31978;SDS011;18502;43.574;1.276;2023-05-10T07:27:28;16.90;;;2.85;;
31978;SDS011;18502;43.574;1.276;2023-05-10T07:29:54;20.88;;;3.08;;
31978;SDS011;18502;43.574;1.276;2023-05-10T07:32:20;19.67;;;2.88;;
31978;SDS011;18502;43.574;1.276;2023-05-10T07:34:46;22.95;;;3.22;;
31978;SDS011;18502;43.574;1.276;2023-05-10T07:37:11;18.52;;;4.28;;
31978;SDS011;18502;43.574;1.276;2023-05-10T07:39:37;16.48;;;3.28;;
31978;SDS011;18502;43.574;1.276;2023-05-10T07:42:03;19.70;;;3.55;;
31978;SDS011;18502;43.574;1.276;2023-05-10T07:44:28;13.23;;;3.50;;
31978;SDS011;18502;43.574;1.276;2023-05-10T07:46:54;22.88;;;3.50;;
31978;SDS011;18502;43.574;1.276;2023-05-10T07:49:20;20.13;;;3.65;;
31978;SDS011;18502;43.574;1.276;2023-05-10T07:51:46;20.77;;;3.15;;
31978;SDS011;18502;43.574;1.276;2023-05-10T07:54:13;22.02;;;3.25;;
31978;SDS011;18502;43.574;1.276;2023-05-10T07:56:39;15.18;;;2.80;;
31978;SDS011;18502;43.574;1.276;2023-05-10T07:59:09;20.77;;;3.28;;
31978;SDS011;18502;43.574;1.276;2023-05-10T08:01:35;33.90;;;6.05;;
31978;SDS011;18502;43.574;1.276;2023-05-10T08:04:01;24.48;;;3.25;;
31978;SDS011;18502;43.574;1.276;2023-05-10T08:06:27;19.73;;;2.47;;
31978;SDS011;18502;43.574;1.276;2023-05-10T08:08:54;16.90;;;2.80;;
31978;SDS011;18502;43.574;1.276;2023-05-10T08:11:20;14.13;;;2.85;;
31978;SDS011;18502;43.574;1.276;2023-05-10T08:13:46;21.33;;;2.50;;
31978;SDS011;18502;43.574;1.276;2023-05-10T08:16:13;18.20;;;3.15;;
31978;SDS011;18502;43.574;1.276;2023-05-10T08:18:39;16.17;;;3.42;;
31978;SDS011;18502;43.574;1.276;2023-05-10T08:21:05;17.15;;;3.08;;
31978;SDS011;18502;43.574;1.276;2023-05-10T08:23:31;15.77;;;3.78;;
31978;SDS011;18502;43.574;1.276;2023-05-10T08:25:57;16.52;;;4.13;;
31978;SDS011;18502;43.574;1.276;2023-05-10T08:28:23;13.70;;;2.95;;
31978;SDS011;18502;43.574;1.276;2023-05-10T08:30:49;20.52;;;3.28;;
31978;SDS011;18502;43.574;1.276;2023-05-10T08:33:17;15.07;;;2.85;;
31978;SDS011;18502;43.574;1.276;2023-05-10T08:35:42;11.00;;;2.70;;
31978;SDS011;18502;43.574;1.276;2023-05-10T08:38:08;18.70;;;3.22;;
31978;SDS011;18502;43.574;1.276;2023-05-10T08:40:34;13.20;;;2.40;;
31978;SDS011;18502;43.574;1.276;2023-05-10T08:43:05;18.65;;;2.30;;
31978;SDS011;18502;43.574;1.276;2023-05-10T08:45:33;16.38;;;3.22;;
31978;SDS011;18502;43.574;1.276;2023-05-10T08:48:05;15.77;;;2.65;;
31978;SDS011;18502;43.574;1.276;2023-05-10T08:50:34;18.45;;;2.88;;
31978;SDS011;18502;43.574;1.276;2023-05-10T08:53:02;13.90;;;1.93;;
31978;SDS011;18502;43.574;1.276;2023-05-10T08:55:31;12.75;;;2.40;;
31978;SDS011;18502;43.574;1.276;2023-05-10T08:57:58;16.45;;;1.85;;
31978;SDS011;18502;43.574;1.276;2023-05-10T09:00:24;12.52;;;2.53;;
31978;SDS011;18502;43.574;1.276;2023-05-10T09:02:51;11.80;;;2.22;;
31978;SDS011;18502;43.574;1.276;2023-05-10T09:05:17;15.43;;;2.80;;
31978;SDS011;18502;43.574;1.276;2023-05-10T09:07:43;11.88;;;2.45;;
31978;SDS011;18502;43.574;1.276;2023-05-10T09:10:09;13.55;;;2.60;;
31978;SDS011;18502;43.574;1.276;2023-05-10T09:12:36;11.00;;;1.98;;
31978;SDS011;18502;43.574;1.276;2023-05-10T09:15:03;11.70;;;2.65;;
31978;SDS011;18502;43.574;1.276;2023-05-10T09:17:30;13.55;;;2.00;;
31978;SDS011;18502;43.574;1.276;2023-05-10T09:19:57;10.10;;;2.05;;
31978;SDS011;18502;43.574;1.276;2023-05-10T09:22:23;9.48;;;1.88;;
31978;SDS011;18502;43.574;1.276;2023-05-10T09:25:03;10.57;;;2.00;;
31978;SDS011;18502;43.574;1.276;2023-05-10T09:29:55;20.27;;;3.05;;
31978;SDS011;18502;43.574;1.276;2023-05-10T09:32:21;9.95;;;1.95;;
31978;SDS011;18502;43.574;1.276;2023-05-10T09:34:47;11.45;;;2.10;;
31978;SDS011;18502;43.574;1.276;2023-05-10T09:37:15;10.48;;;2.47;;
31978;SDS011;18502;43.574;1.276;2023-05-10T09:39:40;13.07;;;2.75;;
31978;SDS011;18502;43.574;1.276;2023-05-10T09:42:07;12.95;;;2.40;;
31978;SDS011;18502;43.574;1.276;2023-05-10T09:44:34;11.63;;;2.10;;
31978;SDS011;18502;43.574;1.276;2023-05-10T09:47:00;10.45;;;2.20;;
31978;SDS011;18502;43.574;1.276;2023-05-10T09:49:27;14.32;;;1.98;;
31978;SDS011;18502;43.574;1.276;2023-05-10T09:52:02;6.20;;;1.23;;
31978;SDS011;18502;43.574;1.276;2023-05-10T09:54:29;4.07;;;1.08;;
31978;SDS011;18502;43.574;1.276;2023-05-10T09:56:55;6.50;;;1.30;;
31978;SDS011;18502;43.574;1.276;2023-05-10T09:59:21;8.07;;;1.10;;
31978;SDS011;18502;43.574;1.276;2023-05-10T10:01:51;5.95;;;1.10;;
31978;SDS011;18502;43.574;1.276;2023-05-10T10:04:17;9.23;;;1.98;;
31978;SDS011;18502;43.574;1.276;2023-05-10T10:06:46;5.15;;;1.70;;
31978;SDS011;18502;43.574;1.276;2023-05-10T10:09:22;6.45;;;1.25;;
31978;SDS011;18502;43.574;1.276;2023-05-10T10:11:49;7.40;;;1.67;;
31978;SDS011;18502;43.574;1.276;2023-05-10T10:14:16;9.13;;;1.30;;
31978;SDS011;18502;43.574;1.276;2023-05-10T10:16:46;5.20;;;1.15;;
31978;SDS011;18502;43.574;1.276;2023-05-10T10:19:12;11.32;;;2.20;;
31978;SDS011;18502;43.574;1.276;2023-05-10T10:21:38;8.32;;;2.22;;
31978;SDS011;18502;43.574;1.276;2023-05-10T10:24:03;12.48;;;2.42;;
31978;SDS011;18502;43.574;1.276;2023-05-10T10:26:30;8.23;;;1.63;;
31978;SDS011;18502;43.574;1.276;2023-05-10T10:31:36;7.93;;;1.70;;
31978;SDS011;18502;43.574;1.276;2023-05-10T10:34:06;8.90;;;1.70;;
31978;SDS011;18502;43.574;1.276;2023-05-10T10:36:45;10.20;;;2.25;;
31978;SDS011;18502;43.574;1.276;2023-05-10T10:39:11;9.88;;;2.00;;
31978;SDS011;18502;43.574;1.276;2023-05-10T10:41:48;11.63;;;2.63;;
31978;SDS011;18502;43.574;1.276;2023-05-10T10:52:21;10.30;;;1.90;;
31978;SDS011;18502;43.574;1.276;2023-05-10T10:55:05;10.52;;;2.33;;
31978;SDS011;18502;43.574;1.276;2023-05-10T11:00:26;8.75;;;1.90;;
31978;SDS011;18502;43.574;1.276;2023-05-10T11:08:06;7.55;;;1.85;;
31978;SDS011;18502;43.574;1.276;2023-05-10T11:10:49;10.68;;;1.80;;
31978;SDS011;18502;43.574;1.276;2023-05-10T11:13:33;6.85;;;1.70;;
31978;SDS011;18502;43.574;1.276;2023-05-10T11:18:39;10.80;;;1.65;;
31978;SDS011;18502;43.574;1.276;2023-05-10T11:21:06;4.60;;;1.02;;
31978;SDS011;18502;43.574;1.276;2023-05-10T11:23:48;5.20;;;1.30;;
31978;SDS011;18502;43.574;1.276;2023-05-10T11:26:15;4.38;;;1.20;;
31978;SDS011;18502;43.574;1.276;2023-05-10T11:28:42;3.72;;;0.60;;
31978;SDS011;18502;43.574;1.276;2023-05-10T11:31:09;4.15;;;1.10;;
31978;SDS011;18502;43.574;1.276;2023-05-10T11:33:45;2.63;;;0.77;;
31978;SDS011;18502;43.574;1.276;2023-05-10T11:36:12;5.35;;;0.82;;
31978;SDS011;18502;43.574;1.276;2023-05-10T11:38:45;3.78;;;0.80;;
31978;SDS011;18502;43.574;1.276;2023-05-10T11:41:12;2.10;;;0.50;;
31978;SDS011;18502;43.574;1.276;2023-05-10T11:43:41;3.58;;;1.35;;
31978;SDS011;18502;43.574;1.276;2023-05-10T11:46:08;3.42;;;0.75;;
31978;SDS011;18502;43.574;1.276;2023-05-10T11:48:36;4.45;;;1.05;;
31978;SDS011;18502;43.574;1.276;2023-05-10T11:51:08;6.80;;;1.10;;
31978;SDS011;18502;43.574;1.276;2023-05-10T11:53:35;3.38;;;1.00;;
31978;SDS011;18502;43.574;1.276;2023-05-10T11:56:07;4.10;;;1.13;;
31978;SDS011;18502;43.574;1.276;2023-05-10T11:58:35;5.80;;;1.95;;
31978;SDS011;18502;43.574;1.276;2023-05-10T12:01:02;8.48;;;1.40;;
31978;SDS011;18502;43.574;1.276;2023-05-10T12:03:30;9.43;;;1.80;;
31978;SDS011;18502;43.574;1.276;2023-05-10T12:05:56;7.80;;;1.92;;
31978;SDS011;18502;43.574;1.276;2023-05-10T12:08:23;9.82;;;1.90;;
31978;SDS011;18502;43.574;1.276;2023-05-10T12:10:51;6.70;;;1.55;;
31978;SDS011;18502;43.574;1.276;2023-05-10T12:13:17;5.47;;;1.40;;
31978;SDS011;18502;43.574;1.276;2023-05-10T12:15:44;8.95;;;1.95;;
31978;SDS011;18502;43.574;1.276;2023-05-10T12:18:10;5.25;;;1.30;;
31978;SDS011;18502;43.574;1.276;2023-05-10T12:20:37;5.95;;;1.33;;
31978;SDS011;18502;43.574;1.276;2023-05-10T12:23:03;4.30;;;1.02;;
31978;SDS011;18502;43.574;1.276;2023-05-10T12:25:34;5.00;;;0.73;;
31978;SDS011;18502;43.574;1.276;2023-05-10T12:28:02;2.72;;;0.80;;
31978;SDS011;18502;43.574;1.276;2023-05-10T12:30:30;1.60;;;0.52;;
31978;SDS011;18502;43.574;1.276;2023-05-10T12:33:10;2.30;;;0.65;;
31978;SDS011;18502;43.574;1.276;2023-05-10T12:35:47;1.77;;;0.55;;
31978;SDS011;18502;43.574;1.276;2023-05-10T12:41:07;2.53;;;0.85;;
31978;SDS011;18502;43.574;1.276;2023-05-10T12:43:35;2.90;;;0.50;;
31978;SDS011;18502;43.574;1.276;2023-05-10T12:46:08;3.08;;;0.98;;
31978;SDS011;18502;43.574;1.276;2023-05-10T12:48:39;4.15;;;1.05;;
31978;SDS011;18502;43.574;1.276;2023-05-10T12:51:05;3.22;;;0.90;;
31978;SDS011;18502;43.574;1.276;2023-05-10T12:53:37;2.40;;;0.77;;
31978;SDS011;18502;43.574;1.276;2023-05-10T12:56:03;2.45;;;0.90;;
31978;SDS011;18502;43.574;1.276;2023-05-10T12:58:29;4.45;;;1.00;;
31978;SDS011;18502;43.574;1.276;2023-05-10T13:00:55;2.85;;;0.68;;
31978;SDS011;18502;43.574;1.276;2023-05-10T13:03:21;3.55;;;1.38;;
31978;SDS011;18502;43.574;1.276;2023-05-10T13:05:47;2.85;;;1.08;;
31978;SDS011;18502;43.574;1.276;2023-05-10T13:08:13;4.53;;;1.13;;
31978;SDS011;18502;43.574;1.276;2023-05-10T13:10:39;2.22;;;0.60;;
31978;SDS011;18502;43.574;1.276;2023-05-10T13:13:05;2.05;;;0.70;;
31978;SDS011;18502;43.574;1.276;2023-05-10T13:15:31;1.65;;;0.77;;
31978;SDS011;18502;43.574;1.276;2023-05-10T13:17:57;4.45;;;1.20;;
31978;SDS011;18502;43.574;1.276;2023-05-10T13:20:22;4.53;;;0.75;;
31978;SDS011;18502;43.574;1.276;2023-05-10T13:22:48;3.83;;;1.08;;
31978;SDS011;18502;43.574;1.276;2023-05-10T13:25:13;2.13;;;0.82;;
31978;SDS011;18502;43.574;1.276;2023-05-10T13:27:39;3.28;;;1.10;;
31978;SDS011;18502;43.574;1.276;2023-05-10T13:30:06;4.63;;;1.38;;
31978;SDS011;18502;43.574;1.276;2023-05-10T13:32:32;6.70;;;1.58;;
31978;SDS011;18502;43.574;1.276;2023-05-10T13:34:58;5.15;;;1.65;;
31978;SDS011;18502;43.574;1.276;2023-05-10T13:37:24;5.82;;;1.30;;
31978;SDS011;18502;43.574;1.276;2023-05-10T13:39:50;2.40;;;0.85;;
31978;SDS011;18502;43.574;1.276;2023-05-10T13:42:15;7.53;;;1.90;;
31978;SDS011;18502;43.574;1.276;2023-05-10T13:44:42;8.90;;;1.52;;
31978;SDS011;18502;43.574;1.276;2023-05-10T13:47:08;6.47;;;1.48;;
31978;SDS011;18502;43.574;1.276;2023-05-10T13:49:33;4.78;;;1.38;;
31978;SDS011;18502;43.574;1.276;2023-05-10T13:51:59;6.68;;;1.25;;
31978;SDS011;18502;43.574;1.276;2023-05-10T13:54:31;8.45;;;2.05;;
31978;SDS011;18502;43.574;1.276;2023-05-10T13:57:06;5.50;;;1.55;;
31978;SDS011;18502;43.574;1.276;2023-05-10T13:59:32;4.55;;;1.33;;
31978;SDS011;18502;43.574;1.276;2023-05-10T14:01:58;6.63;;;1.50;;
31978;SDS011;18502;43.574;1.276;2023-05-10T14:04:24;6.32;;;2.00;;
31978;SDS011;18502;43.574;1.276;2023-05-10T14:06:49;5.60;;;1.30;;
31978;SDS011;18502;43.574;1.276;2023-05-10T14:09:16;6.20;;;1.70;;
31978;SDS011;18502;43.574;1.276;2023-05-10T14:11:42;2.67;;;1.15;;
31978;SDS011;18502;43.574;1.276;2023-05-10T14:14:11;3.35;;;1.40;;
31978;SDS011;18502;43.574;1.276;2023-05-10T14:19:06;5.88;;;1.23;;
31978;SDS011;18502;43.574;1.276;2023-05-10T14:21:32;5.75;;;1.30;;
31978;SDS011;18502;43.574;1.276;2023-05-10T14:23:58;4.75;;;1.48;;
31978;SDS011;18502;43.574;1.276;2023-05-10T14:26:24;9.20;;;2.03;;
31978;SDS011;18502;43.574;1.276;2023-05-10T14:28:50;3.60;;;1.42;;
31978;SDS011;18502;43.574;1.276;2023-05-10T14:31:15;7.70;;;1.85;;
31978;SDS011;18502;43.574;1.276;2023-05-10T14:33:41;8.73;;;1.40;;
31978;SDS011;18502;43.574;1.276;2023-05-10T14:36:07;8.20;;;2.00;;
31978;SDS011;18502;43.574;1.276;2023-05-10T14:38:33;4.63;;;1.38;;
31978;SDS011;18502;43.574;1.276;2023-05-10T14:40:59;4.95;;;1.60;;
31978;SDS011;18502;43.574;1.276;2023-05-10T14:43:25;6.35;;;2.00;;
31978;SDS011;18502;43.574;1.276;2023-05-10T14:45:52;5.75;;;1.30;;
31978;SDS011;18502;43.574;1.276;2023-05-10T14:48:18;9.45;;;1.80;;
31978;SDS011;18502;43.574;1.276;2023-05-10T14:50:44;7.18;;;1.88;;
31978;SDS011;18502;43.574;1.276;2023-05-10T14:53:10;5.30;;;1.70;;
31978;SDS011;18502;43.574;1.276;2023-05-10T14:55:36;3.65;;;1.08;;
31978;SDS011;18502;43.574;1.276;2023-05-10T14:58:03;5.70;;;1.40;;
31978;SDS011;18502;43.574;1.276;2023-05-10T15:00:29;5.32;;;1.35;;
31978;SDS011;18502;43.574;1.276;2023-05-10T15:02:55;5.20;;;1.23;;
31978;SDS011;18502;43.574;1.276;2023-05-10T15:05:20;4.40;;;1.25;;
31978;SDS011;18502;43.574;1.276;2023-05-10T15:07:47;7.38;;;2.22;;
31978;SDS011;18502;43.574;1.276;2023-05-10T15:10:12;6.82;;;1.67;;
31978;SDS011;18502;43.574;1.276;2023-05-10T15:12:39;15.32;;;1.75;;
31978;SDS011;18502;43.574;1.276;2023-05-10T15:15:05;3.80;;;1.20;;
31978;SDS011;18502;43.574;1.276;2023-05-10T15:17:31;1.92;;;0.88;;
31978;SDS011;18502;43.574;1.276;2023-05-10T15:19:57;6.00;;;1.27;;
31978;SDS011;18502;43.574;1.276;2023-05-10T15:22:22;4.13;;;1.20;;
31978;SDS011;18502;43.574;1.276;2023-05-10T15:24:48;4.00;;;1.00;;
31978;SDS011;18502;43.574;1.276;2023-05-10T15:27:14;5.63;;;1.27;;
31978;SDS011;18502;43.574;1.276;2023-05-10T15:29:40;4.43;;;1.08;;
31978;SDS011;18502;43.574;1.276;2023-05-10T15:32:06;2.85;;;0.70;;
31978;SDS011;18502;43.574;1.276;2023-05-10T15:34:32;3.20;;;1.00;;